Gregory, SD (57533)

2:13 PM CDT on March 26, 2015 (GMT -0500)
NonFedAWOS GREGORY AIRPORT SD US SUPERAWOS | Change Station
CLOSE
Current Station
Personal Weather Station
Location: Gregory, SD
Elevation: 2167 ft
Nearby Weather Stations

Elev 2167 ft 43.22 °N, 99.40 °W | Updated 38 minutes ago

Snow
Snow
32 °F
Feels Like 26 °F
N
7
Wind Variable Wind from East
Gusts 0.0 mph

Today
High -- | Low -- °F
--% Chance of Precip.
Yesterday
High -- | Low -- °F
Precip. -- in
7:30 AM 7:56 PM
Waxing Crescent, 45% visible
Pressure 30.15 in
Visibility 2.5 miles
Clouds Overcast 400 ft
Windchill 26 °F
Dew Point 30 °F
Humidity 93%
Rainfall in
Snow Depth Not available.
UV 2 out of 12
Pollen 4.80 out of 12
Air Quality Not available.
Flu Activity Not available.
SPECI KICR 261908Z AUTO 05013KT 2 1/2SM -SN BR OVC004 01/M01 A3015 RMK AO2 P0000 T00061011

More Conditions Fewer Conditions

Pressure 30.15 in
Visibility 2.5 miles
Clouds Overcast 400 ft
Windchill 26 °F
Dew Point 30 °F
Humidity 93%
Rainfall in
Snow Depth Not available.
UV 2 out of 12
Pollen 4.80 out of 12
Air Quality Not available.
Flu Activity Not available.
SPECI KICR 261908Z AUTO 05013KT 2 1/2SM -SN BR OVC004 01/M01 A3015 RMK AO2 P0000 T00061011

More Conditions Fewer Conditions

10-Day Weather Forecast

Almanac

Astronomy

Mar. 26, 2015 Rise Set
Actual Time
Civil Twilight
Nautical Twilight
Astronomical Twilight
Moon
Length of Visible Light
Length of Day
Tomorrow will be .
, % of the Moon is Illuminated

Today's Extremes

State Highs State Lows

Community

WunderPhotos

Upload Photos

1,808,606 photos uploaded!

WunderBlogs® & News

Nearby

Air Quality

  Air Quality AQ Index Pollutant
Not available.

Snow Depth

Station Depth Elevation

Earthquake Activity

City Distance Mag. Time & Date
Minimum magnitude displayed is 2.5.

Coastal Water Temperatures

Place Temperature

Stations

Nearby Weather Stations

Station Location Temp. Windchill Dew Point Humidity Wind Precip. Elev Updated Type